Time;durP1;ratioP1;P1;durP2;ratioP2;P2;SDS_P1;SDS_P2;PMS_P1;PMS_P2;Temp;Humidity;BMP_temperature;BMP_pressure;BME280_temperature;BME280_humidity;BME280_pressure;Samples;Min_cycle;Max_cycle;Signal;HPM_P1;HPM_P2
2023/06/28 00:01:18;;;;;;;2.90;0.50;;;17.20;99.90;;;;;;4826346;29;20045;-70
2023/06/28 00:03:44;;;;;;;2.90;0.60;;;17.20;99.90;;;;;;4822462;29;20045;-70
2023/06/28 00:06:11;;;;;;;2.83;0.68;;;17.20;99.90;;;;;;4842277;29;20041;-70
2023/06/28 00:08:40;;;;;;;4.40;0.55;;;17.20;99.90;;;;;;4832134;29;20037;-70
2023/06/28 00:11:10;;;;;;;1.38;0.50;;;17.30;99.90;;;;;;4821401;29;20053;-70
2023/06/28 00:13:37;;;;;;;1.60;0.60;;;17.30;99.90;;;;;;4832763;29;20048;-71
2023/06/28 00:16:03;;;;;;;1.98;0.50;;;17.30;99.90;;;;;;4817593;29;20505;-70
2023/06/28 00:18:30;;;;;;;1.90;0.50;;;17.30;99.90;;;;;;4815681;29;20045;-70
2023/06/28 00:20:56;;;;;;;4.68;0.68;;;17.30;99.90;;;;;;4813018;29;20049;-70
2023/06/28 00:23:23;;;;;;;2.47;0.60;;;17.30;99.90;;;;;;4829881;29;20036;-71
2023/06/28 00:25:49;;;;;;;3.75;0.82;;;17.30;99.90;;;;;;4845441;29;20052;-71
2023/06/28 00:28:16;;;;;;;2.95;0.57;;;17.30;99.90;;;;;;4835331;29;20036;-70
2023/06/28 00:30:42;;;;;;;1.40;0.47;;;17.30;99.90;;;;;;4810359;29;20041;-70
2023/06/28 00:33:08;;;;;;;4.22;0.70;;;17.30;99.90;;;;;;4829755;29;20124;-70
2023/06/28 00:35:35;;;;;;;3.03;0.60;;;17.30;99.90;;;;;;4832787;29;20045;-70
2023/06/28 00:38:01;;;;;;;4.65;0.68;;;17.30;99.90;;;;;;4830964;29;21910;-70
2023/06/28 00:40:28;;;;;;;1.60;0.50;;;17.30;99.90;;;;;;4827971;29;20043;-70
2023/06/28 00:42:54;;;;;;;2.15;0.50;;;17.30;99.90;;;;;;4845069;29;20629;-70
2023/06/28 00:45:21;;;;;;;2.65;0.50;;;17.30;99.90;;;;;;4841565;29;20033;-70
2023/06/28 00:47:49;;;;;;;3.67;0.65;;;17.40;99.90;;;;;;4832644;29;22028;-72
2023/06/28 00:50:16;;;;;;;2.70;0.90;;;17.30;99.90;;;;;;4807794;29;20052;-72
2023/06/28 00:52:42;;;;;;;3.17;0.90;;;17.30;99.90;;;;;;4833152;29;20068;-71
2023/06/28 00:55:09;;;;;;;3.50;1.30;;;17.30;99.90;;;;;;4817372;29;20107;-71
2023/06/28 00:57:35;;;;;;;3.05;0.90;;;17.30;99.90;;;;;;4832500;29;20061;-71
2023/06/28 01:00:07;;;;;;;3.30;0.60;;;17.30;99.90;;;;;;4834184;29;20041;-71
2023/06/28 01:02:34;;;;;;;2.97;0.70;;;17.30;99.90;;;;;;4843551;29;20405;-72
2023/06/28 01:05:00;;;;;;;2.05;0.57;;;17.30;99.90;;;;;;4837335;29;20055;-72
2023/06/28 01:07:30;;;;;;;3.22;0.50;;;17.30;99.90;;;;;;4836154;29;21432;-72
2023/06/28 01:09:57;;;;;;;3.50;0.60;;;17.30;99.90;;;;;;4824198;29;20407;-72
2023/06/28 01:12:25;;;;;;;2.65;0.60;;;17.30;99.90;;;;;;4817172;29;20037;-70
2023/06/28 01:14:52;;;;;;;1.77;0.60;;;17.30;99.90;;;;;;4832029;29;20111;-71
2023/06/28 01:17:19;;;;;;;3.78;0.60;;;17.30;99.90;;;;;;4820701;29;20029;-70
2023/06/28 01:19:46;;;;;;;2.30;0.65;;;17.30;99.90;;;;;;4833714;29;20127;-70
2023/06/28 01:22:13;;;;;;;2.65;0.60;;;17.30;99.90;;;;;;4829145;29;21631;-71
2023/06/28 01:24:40;;;;;;;2.28;0.57;;;17.30;99.90;;;;;;4832572;29;20413;-71
2023/06/28 01:27:11;;;;;;;3.28;0.60;;;17.30;99.90;;;;;;4832171;29;20496;-70
2023/06/28 01:29:38;;;;;;;7.75;4.82;;;17.30;99.90;;;;;;4796445;29;21428;-70
2023/06/28 01:32:05;;;;;;;8.52;4.45;;;17.30;99.90;;;;;;4833889;29;20048;-70
2023/06/28 01:34:32;;;;;;;9.55;5.55;;;17.30;99.90;;;;;;4833892;29;20057;-71
2023/06/28 01:37:02;;;;;;;6.88;3.42;;;17.30;99.90;;;;;;4842152;29;21172;-71
2023/06/28 01:39:30;;;;;;;4.80;1.88;;;17.30;99.90;;;;;;4821154;29;20037;-70
2023/06/28 01:41:59;;;;;;;5.88;1.30;;;17.30;99.90;;;;;;4838542;29;20048;-70
2023/06/28 01:44:25;;;;;;;3.03;0.98;;;17.30;99.90;;;;;;4816734;29;20080;-70
2023/06/28 01:46:54;;;;;;;3.83;0.95;;;17.30;99.90;;;;;;4802713;29;20424;-70
2023/06/28 01:49:20;;;;;;;3.15;0.80;;;17.30;99.90;;;;;;4826204;29;20045;-70
2023/06/28 01:51:47;;;;;;;3.30;0.90;;;17.20;99.90;;;;;;4830335;29;20048;-70
2023/06/28 01:54:15;;;;;;;2.95;0.75;;;17.20;99.90;;;;;;4832139;29;20060;-70
2023/06/28 01:56:41;;;;;;;1.77;0.63;;;17.10;99.90;;;;;;4841451;29;20052;-70
2023/06/28 01:59:09;;;;;;;2.80;1.00;;;17.10;99.90;;;;;;4835457;29;20119;-70
2023/06/28 02:01:35;;;;;;;2.17;0.70;;;17.10;99.90;;;;;;4830187;29;20652;-71
2023/06/28 02:04:05;;;;;;;3.70;0.82;;;17.00;99.90;;;;;;4830349;29;20637;-71
2023/06/28 02:06:31;;;;;;;4.05;0.90;;;16.90;99.90;;;;;;4813467;29;20069;-71
2023/06/28 02:08:58;;;;;;;4.82;1.05;;;16.90;99.90;;;;;;4807434;29;20072;-71
2023/06/28 02:11:27;;;;;;;5.32;0.98;;;16.90;99.90;;;;;;4827154;29;20037;-71
2023/06/28 02:13:53;;;;;;;3.92;0.70;;;16.80;99.90;;;;;;4823127;29;20049;-71
2023/06/28 02:16:22;;;;;;;3.28;0.90;;;16.80;99.90;;;;;;4830922;29;20048;-71
2023/06/28 02:18:49;;;;;;;3.05;0.82;;;16.80;99.90;;;;;;4834103;29;20043;-71
2023/06/28 02:21:16;;;;;;;2.63;0.70;;;16.80;99.90;;;;;;4826643;29;20033;-71
2023/06/28 02:23:43;;;;;;;1.85;0.90;;;16.80;99.90;;;;;;4831739;29;20045;-71
2023/06/28 02:26:09;;;;;;;3.25;0.70;;;16.70;99.90;;;;;;4831607;29;20041;-72
2023/06/28 02:28:35;;;;;;;2.65;0.80;;;16.60;99.90;;;;;;4829067;29;20045;-72
2023/06/28 02:31:02;;;;;;;5.70;3.88;;;16.60;99.90;;;;;;4811137;29;20358;-72
2023/06/28 02:33:28;;;;;;;5.60;2.10;;;16.60;99.90;;;;;;4823970;29;20152;-73
2023/06/28 02:35:54;;;;;;;5.68;3.78;;;16.60;99.90;;;;;;4841471;29;20539;-73
2023/06/28 02:38:21;;;;;;;8.15;5.93;;;16.50;99.90;;;;;;4816249;29;20059;-74
2023/06/28 02:40:47;;;;;;;6.95;3.67;;;16.40;99.90;;;;;;4821033;29;20040;-72
2023/06/28 02:43:13;;;;;;;4.45;2.30;;;16.40;99.90;;;;;;4829097;29;20049;-72
2023/06/28 02:45:40;;;;;;;4.43;1.25;;;16.40;99.90;;;;;;4829792;29;20048;-70
2023/06/28 02:48:06;;;;;;;3.50;1.10;;;16.30;99.90;;;;;;4818664;29;20044;-69
2023/06/28 02:50:33;;;;;;;3.30;1.23;;;16.30;99.90;;;;;;4811829;29;20481;-69
2023/06/28 02:53:08;;;;;;;3.55;1.10;;;16.30;99.90;;;;;;4825259;29;20047;-69
2023/06/28 02:55:35;;;;;;;4.25;1.08;;;16.30;99.90;;;;;;4841355;29;20060;-69
2023/06/28 02:58:05;;;;;;;3.85;1.00;;;16.30;99.90;;;;;;4833213;29;20041;-69
2023/06/28 03:00:33;;;;;;;2.63;1.00;;;16.30;99.90;;;;;;4806195;29;20048;-69
2023/06/28 03:03:03;;;;;;;3.53;0.88;;;16.30;99.90;;;;;;4817084;29;20428;-69
2023/06/28 03:05:30;;;;;;;4.28;0.88;;;16.30;99.90;;;;;;4829598;29;20249;-69
2023/06/28 03:07:56;;;;;;;3.42;0.90;;;16.30;99.90;;;;;;4814995;29;20041;-69
2023/06/28 03:10:22;;;;;;;2.90;0.90;;;16.20;99.90;;;;;;4829382;29;20029;-69
2023/06/28 03:12:49;;;;;;;2.75;0.85;;;16.30;99.90;;;;;;4828411;29;20401;-69
2023/06/28 03:15:16;;;;;;;4.55;0.85;;;16.30;99.90;;;;;;4837508;29;21758;-69
2023/06/28 03:17:43;;;;;;;2.30;0.68;;;16.20;99.90;;;;;;4832376;29;20135;-69
2023/06/28 03:20:12;;;;;;;2.70;0.70;;;16.20;99.90;;;;;;4805719;29;22044;-69
2023/06/28 03:22:38;;;;;;;3.05;0.80;;;16.20;99.90;;;;;;4829254;29;20056;-69
2023/06/28 03:25:05;;;;;;;2.80;1.08;;;16.20;99.90;;;;;;4814623;29;20045;-69
2023/06/28 03:27:32;;;;;;;3.63;0.95;;;16.20;99.90;;;;;;4832335;29;20041;-69
2023/06/28 03:29:59;;;;;;;2.55;0.80;;;16.20;99.90;;;;;;4816439;29;20071;-69
2023/06/28 03:32:25;;;;;;;2.13;0.80;;;16.20;99.90;;;;;;4842081;29;20708;-69
2023/06/28 03:34:52;;;;;;;3.42;0.90;;;16.20;99.90;;;;;;4820538;29;20044;-69
2023/06/28 03:37:18;;;;;;;2.15;0.57;;;16.20;99.90;;;;;;4829607;29;20056;-69
2023/06/28 03:39:45;;;;;;;2.63;0.90;;;16.10;99.90;;;;;;4821138;29;20044;-69
2023/06/28 03:42:11;;;;;;;3.22;1.02;;;16.10;99.90;;;;;;4829986;29;20045;-69
2023/06/28 03:44:37;;;;;;;3.28;0.80;;;16.10;99.90;;;;;;4829837;29;20036;-69
2023/06/28 03:47:05;;;;;;;1.92;0.88;;;16.10;99.90;;;;;;4836136;29;20036;-69
2023/06/28 03:49:31;;;;;;;2.70;0.70;;;16.10;99.90;;;;;;4817490;29;21134;-69
2023/06/28 03:51:57;;;;;;;2.45;0.70;;;16.10;99.90;;;;;;4824266;29;20060;-69
2023/06/28 03:54:24;;;;;;;2.20;0.80;;;16.10;99.90;;;;;;4830964;29;20040;-69
2023/06/28 03:56:51;;;;;;;4.03;0.98;;;16.10;99.90;;;;;;4828461;29;20053;-69
2023/06/28 03:59:17;;;;;;;4.03;0.85;;;16.10;99.90;;;;;;4807660;29;20041;-69
2023/06/28 04:01:43;;;;;;;3.05;0.90;;;16.10;99.90;;;;;;4825001;29;20099;-69
2023/06/28 04:04:10;;;;;;;2.40;0.82;;;16.10;99.90;;;;;;4830383;29;20536;-69
2023/06/28 04:06:36;;;;;;;2.95;1.33;;;16.10;99.90;;;;;;4822616;29;20045;-69
2023/06/28 04:09:04;;;;;;;2.67;1.00;;;16.00;99.90;;;;;;4834025;29;20045;-69
2023/06/28 04:11:30;;;;;;;4.32;1.20;;;16.00;99.90;;;;;;4833013;29;20300;-69
2023/06/28 04:13:56;;;;;;;2.92;1.10;;;16.10;99.90;;;;;;4827932;29;20045;-69
2023/06/28 04:16:23;;;;;;;2.80;1.30;;;16.10;99.90;;;;;;4827826;29;20048;-69
2023/06/28 04:18:49;;;;;;;2.70;1.10;;;16.10;99.90;;;;;;4825254;29;22160;-69
2023/06/28 04:21:15;;;;;;;4.18;1.27;;;16.00;99.90;;;;;;4824795;29;20037;-69
2023/06/28 04:23:42;;;;;;;3.30;1.10;;;16.00;99.90;;;;;;4818664;29;20056;-69
2023/06/28 04:26:08;;;;;;;3.85;1.50;;;16.00;99.90;;;;;;4840976;29;20037;-69
2023/06/28 04:28:34;;;;;;;3.63;1.38;;;16.00;99.90;;;;;;4839264;29;20469;-69
2023/06/28 04:31:01;;;;;;;2.38;1.20;;;16.00;99.90;;;;;;4826079;29;20049;-70
2023/06/28 04:33:29;;;;;;;4.78;1.42;;;16.10;99.90;;;;;;4831581;29;20033;-70
2023/06/28 04:35:57;;;;;;;3.10;1.50;;;16.10;99.90;;;;;;4829205;29;20052;-70
2023/06/28 04:38:23;;;;;;;3.10;1.73;;;16.20;99.90;;;;;;4829438;29;20049;-70
2023/06/28 04:40:50;;;;;;;5.15;1.85;;;16.20;99.90;;;;;;4821405;29;20033;-70
2023/06/28 04:43:16;;;;;;;2.85;1.60;;;16.20;99.90;;;;;;4835249;29;20049;-70
2023/06/28 04:45:43;;;;;;;3.45;1.88;;;16.20;99.90;;;;;;4842859;29;20033;-70
2023/06/28 04:48:09;;;;;;;5.82;1.95;;;16.20;99.90;;;;;;4841417;29;20048;-70
2023/06/28 04:50:37;;;;;;;4.25;1.20;;;16.20;99.90;;;;;;4824220;29;20327;-70
2023/06/28 04:53:04;;;;;;;3.17;1.67;;;16.20;99.90;;;;;;4831021;29;20423;-70
2023/06/28 04:55:35;;;;;;;4.22;1.52;;;16.20;99.90;;;;;;4831757;29;20052;-70
2023/06/28 04:58:07;;;;;;;3.72;1.95;;;16.20;99.90;;;;;;4817396;29;20049;-70
2023/06/28 05:00:34;;;;;;;3.17;1.35;;;16.20;99.90;;;;;;4828044;29;20067;-70
2023/06/28 05:03:00;;;;;;;9.88;5.10;;;16.20;99.90;;;;;;4845114;29;22051;-69
2023/06/28 05:05:27;;;;;;;5.72;2.83;;;16.30;99.90;;;;;;4845556;29;20052;-70
2023/06/28 05:07:54;;;;;;;8.70;5.50;;;16.30;99.90;;;;;;4835195;29;20347;-69
2023/06/28 05:10:22;;;;;;;7.82;5.20;;;16.30;99.90;;;;;;4826292;29;20409;-70
2023/06/28 05:12:51;;;;;;;7.97;4.07;;;16.30;99.90;;;;;;4838740;29;20037;-70
2023/06/28 05:15:18;;;;;;;8.70;3.08;;;16.40;99.90;;;;;;4834881;29;20033;-69
2023/06/28 05:17:45;;;;;;;7.07;3.80;;;16.40;99.90;;;;;;4835686;29;20043;-69
2023/06/28 05:20:11;;;;;;;6.88;3.75;;;16.50;99.90;;;;;;4837501;29;20040;-70
2023/06/28 05:22:46;;;;;;;7.15;4.97;;;16.50;99.90;;;;;;4848071;29;20512;-70
2023/06/28 05:25:13;;;;;;;10.32;6.85;;;16.50;99.90;;;;;;4826913;29;20518;-70
2023/06/28 05:27:39;;;;;;;6.45;4.47;;;16.50;99.90;;;;;;4836724;29;20400;-69
2023/06/28 05:30:07;;;;;;;6.22;3.80;;;16.50;99.90;;;;;;4832712;29;20429;-70
2023/06/28 05:32:34;;;;;;;13.75;6.75;;;16.50;99.90;;;;;;4836901;29;20041;-69
2023/06/28 05:35:02;;;;;;;6.70;4.32;;;16.50;99.90;;;;;;4838262;29;20045;-69
2023/06/28 05:37:29;;;;;;;9.10;4.03;;;16.50;99.90;;;;;;4825142;29;20040;-70
2023/06/28 05:39:55;;;;;;;5.60;3.38;;;16.50;99.90;;;;;;4839596;29;20048;-70
2023/06/28 05:42:22;;;;;;;5.18;2.70;;;16.50;99.90;;;;;;4842971;29;20502;-70
2023/06/28 05:44:48;;;;;;;3.78;2.30;;;16.50;99.90;;;;;;4837675;29;21156;-69
2023/06/28 05:47:14;;;;;;;2.83;2.08;;;16.50;99.90;;;;;;4835475;29;20826;-69
2023/06/28 05:49:42;;;;;;;5.85;2.35;;;16.50;99.90;;;;;;4828697;29;20520;-69
2023/06/28 05:52:08;;;;;;;4.00;2.03;;;16.50;99.90;;;;;;4833501;29;20040;-69
2023/06/28 05:54:35;;;;;;;6.78;2.90;;;16.40;99.90;;;;;;4816500;29;20052;-70
2023/06/28 05:57:01;;;;;;;4.78;2.75;;;16.50;99.90;;;;;;4844097;29;20746;-69
2023/06/28 05:59:27;;;;;;;4.97;2.35;;;16.50;99.90;;;;;;4842179;29;20040;-69
2023/06/28 06:01:53;;;;;;;4.80;2.78;;;16.50;99.90;;;;;;4839626;29;20044;-69
2023/06/28 06:04:20;;;;;;;7.72;2.83;;;16.50;99.90;;;;;;4837354;29;20036;-69
2023/06/28 06:06:46;;;;;;;4.40;2.40;;;16.50;99.90;;;;;;4835854;29;20041;-69
2023/06/28 06:09:13;;;;;;;4.10;2.22;;;16.50;99.90;;;;;;4829875;29;20776;-69
2023/06/28 06:11:40;;;;;;;3.92;2.15;;;16.60;99.90;;;;;;4817313;29;20702;-69
2023/06/28 06:14:06;;;;;;;7.57;2.85;;;16.60;99.90;;;;;;4841676;29;20040;-69
2023/06/28 06:16:32;;;;;;;4.65;2.53;;;16.60;99.90;;;;;;4847241;29;20033;-69
2023/06/28 06:18:59;;;;;;;3.78;2.38;;;16.60;99.90;;;;;;4839837;29;20037;-69
2023/06/28 06:21:25;;;;;;;7.35;2.85;;;16.60;99.90;;;;;;4831800;29;20504;-69
2023/06/28 06:23:51;;;;;;;6.15;2.25;;;16.60;99.90;;;;;;4817949;29;20026;-69
2023/06/28 06:26:18;;;;;;;5.25;2.60;;;16.70;99.90;;;;;;4835080;29;20485;-69
2023/06/28 06:28:44;;;;;;;6.22;2.60;;;16.80;99.90;;;;;;4832714;29;21074;-69
2023/06/28 06:31:13;;;;;;;5.65;3.50;;;16.80;99.90;;;;;;4829646;29;21391;-69
2023/06/28 06:33:40;;;;;;;5.25;3.50;;;16.80;99.90;;;;;;4841519;29;20461;-70
2023/06/28 06:36:06;;;;;;;5.30;2.22;;;16.90;99.90;;;;;;4844740;29;20052;-69
2023/06/28 06:38:33;;;;;;;5.07;2.55;;;17.00;99.90;;;;;;4836765;29;20049;-70
2023/06/28 06:40:59;;;;;;;8.68;2.95;;;17.00;99.90;;;;;;4828553;29;20044;-69
2023/06/28 06:43:25;;;;;;;6.63;3.05;;;17.10;99.90;;;;;;4803584;29;20038;-69
2023/06/28 06:45:52;;;;;;;7.57;3.75;;;17.10;99.90;;;;;;4833848;29;20610;-69
2023/06/28 06:48:19;;;;;;;9.38;3.35;;;17.10;99.90;;;;;;4816479;29;20045;-69
2023/06/28 06:50:45;;;;;;;6.82;3.30;;;17.10;99.90;;;;;;4834861;29;20405;-69
2023/06/28 06:53:11;;;;;;;4.88;3.10;;;17.10;99.90;;;;;;4842296;29;20040;-69
2023/06/28 06:55:38;;;;;;;5.15;2.72;;;17.00;99.90;;;;;;4841748;29;20065;-69
2023/06/28 06:58:04;;;;;;;8.10;2.58;;;17.10;99.90;;;;;;4804602;29;20052;-69
2023/06/28 07:00:30;;;;;;;6.75;3.88;;;17.10;99.90;;;;;;4828160;29;20341;-71
2023/06/28 07:02:57;;;;;;;5.28;3.45;;;17.10;99.90;;;;;;4832518;29;20047;-70
2023/06/28 07:05:23;;;;;;;4.85;2.72;;;17.10;99.90;;;;;;4817738;29;21092;-71
2023/06/28 07:07:49;;;;;;;7.28;4.15;;;17.10;99.90;;;;;;4838941;29;20037;-70
2023/06/28 07:10:16;;;;;;;6.97;3.67;;;17.10;99.90;;;;;;4808631;29;20048;-70
2023/06/28 07:12:42;;;;;;;7.53;5.25;;;17.10;99.90;;;;;;4845141;29;20025;-70
2023/06/28 07:15:09;;;;;;;7.72;4.80;;;17.10;99.90;;;;;;4833302;29;20037;-69
2023/06/28 07:17:36;;;;;;;6.13;4.32;;;17.20;99.90;;;;;;4835788;29;20056;-69
2023/06/28 07:20:03;;;;;;;7.00;4.15;;;17.20;99.90;;;;;;4825200;29;20040;-69
2023/06/28 07:22:29;;;;;;;5.22;3.38;;;17.30;99.90;;;;;;4834233;29;20060;-69
2023/06/28 07:24:55;;;;;;;5.97;3.63;;;17.40;99.90;;;;;;4832893;29;20042;-69
2023/06/28 07:27:22;;;;;;;8.23;4.13;;;17.50;99.90;;;;;;4846116;29;20033;-69
2023/06/28 07:29:48;;;;;;;8.40;4.85;;;17.50;99.90;;;;;;4837632;29;20072;-69
2023/06/28 07:32:14;;;;;;;6.60;3.72;;;17.60;99.90;;;;;;4827604;29;20045;-69
2023/06/28 07:34:40;;;;;;;7.70;4.15;;;17.60;99.90;;;;;;4836394;29;21109;-69
2023/06/28 07:37:07;;;;;;;5.03;3.28;;;17.70;99.90;;;;;;4835693;29;20049;-69
2023/06/28 07:39:33;;;;;;;12.05;6.07;;;17.70;99.90;;;;;;4827193;29;20046;-69
2023/06/28 07:42:00;;;;;;;7.13;4.75;;;17.80;99.90;;;;;;4833354;29;20052;-69
2023/06/28 07:44:26;;;;;;;9.20;5.22;;;17.80;99.90;;;;;;4833801;29;20041;-69
2023/06/28 07:46:52;;;;;;;9.82;5.32;;;17.70;99.90;;;;;;4846552;29;20359;-69
2023/06/28 07:49:18;;;;;;;7.28;3.88;;;17.80;99.90;;;;;;4824440;29;20686;-69
2023/06/28 07:51:45;;;;;;;11.02;5.97;;;17.80;99.90;;;;;;4837912;29;20029;-69
2023/06/28 07:54:11;;;;;;;6.72;4.22;;;17.90;99.90;;;;;;4833791;29;20397;-69
2023/06/28 07:56:37;;;;;;;6.03;3.40;;;17.80;99.90;;;;;;4835079;29;20057;-69
2023/06/28 07:59:05;;;;;;;5.88;4.10;;;17.90;99.90;;;;;;4828804;29;20045;-69
2023/06/28 08:01:33;;;;;;;9.23;3.70;;;17.90;99.90;;;;;;4815072;29;20041;-70
2023/06/28 08:04:00;;;;;;;6.20;3.88;;;17.90;99.90;;;;;;4839616;29;20049;-69
2023/06/28 08:06:26;;;;;;;7.28;3.78;;;17.90;99.90;;;;;;4830300;29;20037;-69
2023/06/28 08:08:52;;;;;;;6.70;4.28;;;17.90;99.90;;;;;;4841243;29;20041;-70
2023/06/28 08:11:19;;;;;;;5.47;3.65;;;18.00;99.90;;;;;;4830535;29;20068;-70
2023/06/28 08:13:45;;;;;;;6.97;3.28;;;18.00;99.90;;;;;;4835628;29;20037;-69
2023/06/28 08:16:13;;;;;;;6.00;3.28;;;18.10;99.90;;;;;;4833955;29;20045;-70
2023/06/28 08:18:40;;;;;;;7.47;3.83;;;18.20;99.90;;;;;;4832856;29;20048;-70
2023/06/28 08:21:06;;;;;;;6.38;4.15;;;18.30;99.90;;;;;;4816034;29;20029;-70
2023/06/28 08:23:32;;;;;;;7.22;3.60;;;18.40;99.90;;;;;;4825904;29;20041;-70
2023/06/28 08:25:58;;;;;;;7.35;4.00;;;18.40;99.90;;;;;;4846289;29;20037;-70
2023/06/28 08:28:25;;;;;;;6.82;4.50;;;18.50;99.90;;;;;;4824158;29;20413;-70
2023/06/28 08:30:51;;;;;;;6.32;3.45;;;18.60;99.90;;;;;;4829159;29;20052;-70
2023/06/28 08:33:17;;;;;;;7.07;4.05;;;18.70;99.90;;;;;;4836204;29;20047;-70
2023/06/28 08:35:44;;;;;;;7.22;3.85;;;18.70;99.90;;;;;;4824162;29;20041;-70
2023/06/28 08:38:11;;;;;;;4.70;3.45;;;18.80;99.90;;;;;;4837481;29;20045;-70
2023/06/28 08:40:38;;;;;;;9.27;4.22;;;18.90;99.90;;;;;;4834062;29;20416;-70
2023/06/28 08:43:05;;;;;;;7.00;3.90;;;18.90;99.90;;;;;;4849115;29;20401;-69
2023/06/28 08:45:33;;;;;;;5.30;3.30;;;19.00;99.90;;;;;;4848828;29;20037;-70
2023/06/28 08:48:00;;;;;;;6.75;3.80;;;19.10;99.90;;;;;;4838710;29;20389;-70
2023/06/28 08:50:27;;;;;;;11.18;4.75;;;19.20;99.90;;;;;;4815240;29;20524;-70
2023/06/28 08:52:55;;;;;;;10.13;5.35;;;19.20;99.90;;;;;;4838902;29;20469;-70
2023/06/28 08:55:22;;;;;;;10.25;4.57;;;19.20;99.90;;;;;;4834384;29;20033;-70
2023/06/28 08:57:48;;;;;;;5.50;3.55;;;19.30;99.90;;;;;;4836652;29;20046;-69
2023/06/28 09:00:15;;;;;;;5.45;3.13;;;19.40;99.90;;;;;;4835887;29;20421;-70
2023/06/28 09:02:42;;;;;;;9.73;4.03;;;19.40;99.90;;;;;;4834009;29;20644;-70
2023/06/28 09:05:10;;;;;;;8.07;4.20;;;19.50;99.90;;;;;;4828708;29;20452;-70
2023/06/28 09:07:39;;;;;;;8.90;4.43;;;19.60;99.90;;;;;;4837819;29;20033;-70
2023/06/28 09:10:09;;;;;;;6.63;3.28;;;19.60;99.90;;;;;;4832365;29;20045;-70
2023/06/28 09:12:38;;;;;;;9.05;4.20;;;19.80;99.90;;;;;;4822559;29;21220;-70
2023/06/28 09:15:05;;;;;;;6.38;3.55;;;19.90;99.90;;;;;;4835515;29;20523;-70
2023/06/28 09:17:31;;;;;;;6.70;2.85;;;19.90;99.90;;;;;;4842519;29;20037;-70
2023/06/28 09:20:14;;;;;;;6.57;3.83;;;19.90;99.90;;;;;;4840424;29;20044;-70
2023/06/28 09:22:40;;;;;;;7.10;3.88;;;19.90;99.90;;;;;;4845915;29;20048;-70
2023/06/28 09:25:07;;;;;;;8.23;3.75;;;19.90;99.90;;;;;;4837221;29;20056;-70
2023/06/28 09:27:33;;;;;;;8.25;3.83;;;19.90;99.90;;;;;;4839655;29;20037;-70
2023/06/28 09:30:18;;;;;;;8.38;3.88;;;19.80;99.90;;;;;;4831428;29;20053;-70
2023/06/28 09:32:51;;;;;;;6.88;2.95;;;19.90;99.90;;;;;;4837121;29;20045;-70
2023/06/28 09:35:24;;;;;;;5.35;2.97;;;19.80;99.90;;;;;;4838041;29;20040;-70
2023/06/28 09:37:54;;;;;;;8.57;3.50;;;19.80;99.90;;;;;;4847128;29;20061;-70
2023/06/28 09:40:21;;;;;;;7.03;3.90;;;19.80;99.90;;;;;;4839520;29;20662;-70
2023/06/28 09:42:49;;;;;;;5.57;3.28;;;19.80;99.90;;;;;;4842236;29;20026;-70
2023/06/28 09:45:30;;;;;;;7.15;3.47;;;19.80;99.90;;;;;;4819909;29;20608;-70
2023/06/28 09:47:58;;;;;;;8.23;3.60;;;19.90;99.90;;;;;;4823075;29;20040;-70
2023/06/28 09:50:37;;;;;;;5.93;2.60;;;19.90;99.90;;;;;;4829319;29;20282;-70
2023/06/28 09:53:22;;;;;;;8.35;3.35;;;20.00;99.90;;;;;;4837284;29;20052;-70
2023/06/28 09:55:50;;;;;;;6.65;2.60;;;20.00;99.90;;;;;;4860718;29;20053;-70
2023/06/28 09:58:18;;;;;;;9.02;3.50;;;20.10;99.90;;;;;;4831017;29;20044;-70
2023/06/28 10:00:49;;;;;;;8.13;3.80;;;20.20;99.90;;;;;;4835855;29;20037;-70
2023/06/28 10:03:17;;;;;;;4.95;3.35;;;20.20;99.90;;;;;;4836310;29;20045;-70
2023/06/28 10:05:45;;;;;;;13.52;4.53;;;20.30;99.90;;;;;;4837575;29;20051;-70
2023/06/28 10:08:14;;;;;;;6.50;3.22;;;20.20;99.90;;;;;;4838289;29;20466;-69
2023/06/28 10:10:41;;;;;;;9.88;4.60;;;20.20;99.90;;;;;;4818027;29;20552;-69
2023/06/28 10:13:11;;;;;;;9.82;4.78;;;20.20;99.90;;;;;;4843439;29;21119;-69
2023/06/28 10:15:58;;;;;;;5.55;3.10;;;20.20;99.90;;;;;;4848226;29;20048;-69
2023/06/28 10:18:25;;;;;;;8.43;4.68;;;20.10;99.90;;;;;;4813087;29;20060;-69
2023/06/28 10:20:51;;;;;;;7.18;3.80;;;20.10;99.90;;;;;;4819146;29;20441;-69
2023/06/28 10:23:18;;;;;;;11.50;6.70;;;20.20;99.90;;;;;;4836227;29;20052;-69
2023/06/28 10:25:45;;;;;;;12.70;6.35;;;20.20;99.90;;;;;;4833976;29;20034;-69
2023/06/28 10:28:13;;;;;;;8.25;4.95;;;20.20;99.90;;;;;;4835221;29;20400;-69
2023/06/28 10:30:41;;;;;;;8.93;3.58;;;20.20;99.90;;;;;;4831541;29;20040;-69
2023/06/28 10:33:09;;;;;;;9.93;4.45;;;20.40;99.90;;;;;;4830212;29;20041;-69
2023/06/28 10:35:36;;;;;;;5.38;4.22;;;20.40;99.90;;;;;;4847730;29;20617;-69
2023/06/28 10:38:04;;;;;;;7.35;4.70;;;20.60;99.90;;;;;;4825824;29;20044;-71
2023/06/28 10:40:30;;;;;;;6.72;4.28;;;20.70;99.90;;;;;;4814829;29;20049;-69
2023/06/28 10:42:57;;;;;;;10.35;6.18;;;21.00;99.90;;;;;;4819748;29;20539;-70
2023/06/28 10:45:37;;;;;;;11.25;5.95;;;21.20;99.90;;;;;;4835729;29;20328;-70
2023/06/28 10:48:04;;;;;;;8.90;4.90;;;21.60;99.90;;;;;;4850157;29;20692;-68
2023/06/28 10:50:43;;;;;;;11.10;6.63;;;21.80;99.90;;;;;;4837385;29;21215;-69
2023/06/28 10:53:27;;;;;;;7.63;4.88;;;22.10;99.90;;;;;;4847132;29;20033;-68
2023/06/28 10:56:10;;;;;;;8.95;4.25;;;22.40;99.90;;;;;;4840844;29;20477;-69
2023/06/28 10:58:41;;;;;;;6.07;3.25;;;22.60;99.90;;;;;;4833174;29;20056;-68
2023/06/28 11:01:09;;;;;;;9.38;5.63;;;22.80;99.90;;;;;;4816967;29;20517;-68
2023/06/28 11:03:39;;;;;;;6.05;3.90;;;23.00;99.90;;;;;;4835802;29;20040;-69
2023/06/28 11:06:07;;;;;;;7.10;4.47;;;23.10;99.90;;;;;;4834849;29;20048;-68
2023/06/28 11:08:42;;;;;;;8.13;3.88;;;23.40;99.90;;;;;;4832398;29;20244;-69
2023/06/28 11:11:30;;;;;;;5.40;3.88;;;23.80;99.90;;;;;;4841896;29;20025;-69
2023/06/28 11:13:57;;;;;;;7.95;4.32;;;24.20;99.90;;;;;;4827773;29;20588;-69
2023/06/28 11:16:24;;;;;;;7.20;4.15;;;24.40;99.90;;;;;;4805407;29;20894;-69
2023/06/28 11:18:52;;;;;;;9.68;5.30;;;24.60;99.90;;;;;;4816016;29;20067;-69
2023/06/28 11:21:23;;;;;;;8.20;4.38;;;24.70;99.90;;;;;;4829975;29;20044;-70
2023/06/28 11:23:53;;;;;;;8.38;3.78;;;24.70;99.90;;;;;;4834299;29;20497;-70
2023/06/28 11:26:34;;;;;;;7.68;4.93;;;24.70;99.90;;;;;;4832865;29;20388;-69
2023/06/28 11:29:01;;;;;;;8.65;5.03;;;24.70;99.90;;;;;;4840984;29;20320;-71
2023/06/28 11:31:33;;;;;;;6.88;3.92;;;24.80;99.90;;;;;;4840642;29;20976;-70
2023/06/28 11:34:00;;;;;;;7.63;5.05;;;25.00;99.90;;;;;;4838728;29;20037;-70
2023/06/28 11:36:28;;;;;;;8.48;4.50;;;25.10;99.90;;;;;;4818698;29;20347;-69
2023/06/28 11:38:54;;;;;;;10.20;5.88;;;25.20;99.90;;;;;;4816717;29;20060;-70
2023/06/28 11:41:21;;;;;;;7.72;4.85;;;25.20;99.90;;;;;;4816930;29;20041;-70
2023/06/28 11:43:48;;;;;;;10.98;5.50;;;25.20;99.90;;;;;;4835607;29;20080;-69
2023/06/28 11:46:17;;;;;;;8.95;5.07;;;25.10;99.90;;;;;;4834205;29;20049;-70
2023/06/28 11:48:45;;;;;;;10.77;5.10;;;25.00;99.90;;;;;;4827844;29;20048;-70
2023/06/28 11:51:13;;;;;;;9.32;4.72;;;24.90;99.90;;;;;;4842522;29;20048;-69
2023/06/28 11:53:39;;;;;;;9.07;4.93;;;24.80;99.90;;;;;;4837828;29;20040;-70
2023/06/28 11:56:06;;;;;;;9.05;5.57;;;24.70;99.90;;;;;;4803483;29;20509;-70
2023/06/28 11:58:34;;;;;;;9.05;5.45;;;24.70;99.90;;;;;;4802378;29;20041;-70
2023/06/28 12:01:07;;;;;;;8.93;5.90;;;24.60;99.90;;;;;;4831575;29;20082;-69
2023/06/28 12:03:33;;;;;;;8.30;4.78;;;24.40;99.90;;;;;;4804169;29;20041;-70
2023/06/28 12:06:02;;;;;;;7.30;4.63;;;24.30;99.90;;;;;;4835140;29;20389;-70
2023/06/28 12:08:36;;;;;;;8.10;5.32;;;24.20;99.90;;;;;;4846758;29;20037;-68
2023/06/28 12:11:14;;;;;;;6.38;3.58;;;24.10;99.90;;;;;;4845846;29;20396;-69
2023/06/28 12:13:41;;;;;;;7.75;4.72;;;24.00;99.90;;;;;;4840402;29;20075;-68
2023/06/28 12:16:18;;;;;;;11.25;5.50;;;23.90;99.90;;;;;;4839778;29;20041;-68
2023/06/28 12:19:01;;;;;;;7.07;3.72;;;23.90;99.90;;;;;;4836430;29;20049;-68
2023/06/28 12:21:30;;;;;;;6.72;3.92;;;23.90;99.90;;;;;;4836696;29;20044;-68
2023/06/28 12:24:25;;;;;;;9.38;4.47;;;24.00;99.90;;;;;;4838412;29;20037;-69
2023/06/28 12:26:56;;;;;;;7.57;5.20;;;24.10;99.90;;;;;;4848835;29;20048;-69
2023/06/28 12:29:24;;;;;;;10.95;5.15;;;24.20;99.90;;;;;;4849059;29;20033;-69
2023/06/28 12:31:53;;;;;;;5.18;3.63;;;24.40;99.90;;;;;;4840499;29;20028;-70
2023/06/28 12:34:27;;;;;;;8.07;4.82;;;24.60;99.90;;;;;;4838652;29;20037;-69
2023/06/28 12:36:55;;;;;;;9.20;5.90;;;24.70;99.90;;;;;;4837588;29;20213;-71
2023/06/28 12:39:31;;;;;;;6.60;4.70;;;24.80;99.90;;;;;;4836980;29;20042;-69
2023/06/28 12:42:08;;;;;;;9.52;5.93;;;24.80;99.90;;;;;;4833856;29;20037;-70
2023/06/28 12:45:01;;;;;;;7.53;5.35;;;24.90;99.90;;;;;;4840953;29;20052;-69
2023/06/28 12:47:30;;;;;;;5.53;4.30;;;24.90;99.90;;;;;;4829357;29;20033;-70
2023/06/28 12:49:58;;;;;;;8.82;5.75;;;24.90;99.90;;;;;;4840224;29;20044;-71